sensor_id;sensor_type;location;lat;lon;timestamp;P1;durP1;ratioP1;P2;durP2;ratioP2
4980;SDS011;2507;50.392;7.482;2022-11-15T00:00:02;16.57;;;14.00;;
4980;SDS011;2507;50.392;7.482;2022-11-15T00:02:28;19.50;;;15.33;;
4980;SDS011;2507;50.392;7.482;2022-11-15T00:04:53;20.07;;;14.30;;
4980;SDS011;2507;50.392;7.482;2022-11-15T00:07:19;20.30;;;14.00;;
4980;SDS011;2507;50.392;7.482;2022-11-15T00:09:44;14.40;;;11.57;;
4980;SDS011;2507;50.392;7.482;2022-11-15T00:12:09;12.73;;;11.43;;
4980;SDS011;2507;50.392;7.482;2022-11-15T00:14:35;12.50;;;11.13;;
4980;SDS011;2507;50.392;7.482;2022-11-15T00:17:00;14.00;;;11.30;;
4980;SDS011;2507;50.392;7.482;2022-11-15T00:19:25;12.37;;;10.60;;
4980;SDS011;2507;50.392;7.482;2022-11-15T00:21:50;11.50;;;10.37;;
4980;SDS011;2507;50.392;7.482;2022-11-15T00:24:16;12.57;;;11.30;;
4980;SDS011;2507;50.392;7.482;2022-11-15T00:26:41;14.63;;;11.03;;
4980;SDS011;2507;50.392;7.482;2022-11-15T00:29:06;12.60;;;11.20;;
4980;SDS011;2507;50.392;7.482;2022-11-15T00:31:32;15.20;;;12.50;;
4980;SDS011;2507;50.392;7.482;2022-11-15T00:33:57;18.43;;;12.70;;
4980;SDS011;2507;50.392;7.482;2022-11-15T00:36:22;14.07;;;12.13;;
4980;SDS011;2507;50.392;7.482;2022-11-15T00:38:47;12.67;;;11.33;;
4980;SDS011;2507;50.392;7.482;2022-11-15T00:41:13;12.83;;;11.53;;
4980;SDS011;2507;50.392;7.482;2022-11-15T00:43:38;13.30;;;11.13;;
4980;SDS011;2507;50.392;7.482;2022-11-15T00:46:04;12.30;;;11.00;;
4980;SDS011;2507;50.392;7.482;2022-11-15T00:48:30;14.33;;;12.30;;
4980;SDS011;2507;50.392;7.482;2022-11-15T00:50:56;13.27;;;11.87;;
4980;SDS011;2507;50.392;7.482;2022-11-15T00:53:22;12.50;;;10.60;;
4980;SDS011;2507;50.392;7.482;2022-11-15T00:55:47;12.97;;;11.30;;
4980;SDS011;2507;50.392;7.482;2022-11-15T00:58:12;11.97;;;10.80;;
4980;SDS011;2507;50.392;7.482;2022-11-15T01:00:38;12.10;;;10.40;;
4980;SDS011;2507;50.392;7.482;2022-11-15T01:03:03;12.20;;;11.00;;
4980;SDS011;2507;50.392;7.482;2022-11-15T01:05:28;11.33;;;9.93;;
4980;SDS011;2507;50.392;7.482;2022-11-15T01:07:54;15.00;;;12.27;;
4980;SDS011;2507;50.392;7.482;2022-11-15T01:10:20;14.10;;;12.30;;
4980;SDS011;2507;50.392;7.482;2022-11-15T01:12:46;14.43;;;12.70;;
4980;SDS011;2507;50.392;7.482;2022-11-15T01:15:12;12.73;;;11.43;;
4980;SDS011;2507;50.392;7.482;2022-11-15T01:17:37;13.13;;;11.63;;
4980;SDS011;2507;50.392;7.482;2022-11-15T01:20:03;12.73;;;11.43;;
4980;SDS011;2507;50.392;7.482;2022-11-15T01:22:28;12.10;;;10.80;;
4980;SDS011;2507;50.392;7.482;2022-11-15T01:24:54;11.33;;;9.90;;
4980;SDS011;2507;50.392;7.482;2022-11-15T01:27:19;12.37;;;11.03;;
4980;SDS011;2507;50.392;7.482;2022-11-15T01:29:44;10.73;;;9.73;;
4980;SDS011;2507;50.392;7.482;2022-11-15T01:32:09;10.00;;;9.00;;
4980;SDS011;2507;50.392;7.482;2022-11-15T01:34:35;12.10;;;10.43;;
4980;SDS011;2507;50.392;7.482;2022-11-15T01:37:00;10.67;;;9.57;;
4980;SDS011;2507;50.392;7.482;2022-11-15T01:39:26;11.37;;;10.27;;
4980;SDS011;2507;50.392;7.482;2022-11-15T01:41:51;10.57;;;9.57;;
4980;SDS011;2507;50.392;7.482;2022-11-15T01:44:34;17.70;;;12.33;;
4980;SDS011;2507;50.392;7.482;2022-11-15T01:47:02;12.07;;;10.67;;
4980;SDS011;2507;50.392;7.482;2022-11-15T01:49:32;12.80;;;10.87;;
4980;SDS011;2507;50.392;7.482;2022-11-15T01:52:00;15.10;;;12.27;;
4980;SDS011;2507;50.392;7.482;2022-11-15T01:54:28;12.17;;;10.97;;
4980;SDS011;2507;50.392;7.482;2022-11-15T01:57:02;12.37;;;11.00;;
4980;SDS011;2507;50.392;7.482;2022-11-15T01:59:31;11.20;;;10.10;;
4980;SDS011;2507;50.392;7.482;2022-11-15T02:01:57;11.87;;;10.57;;
4980;SDS011;2507;50.392;7.482;2022-11-15T02:04:27;18.33;;;11.80;;
4980;SDS011;2507;50.392;7.482;2022-11-15T02:06:56;12.53;;;11.20;;
4980;SDS011;2507;50.392;7.482;2022-11-15T02:09:22;11.17;;;10.10;;
4980;SDS011;2507;50.392;7.482;2022-11-15T02:11:48;11.17;;;10.17;;
4980;SDS011;2507;50.392;7.482;2022-11-15T02:14:15;12.63;;;10.97;;
4980;SDS011;2507;50.392;7.482;2022-11-15T02:24:40;11.13;;;9.67;;
4980;SDS011;2507;50.392;7.482;2022-11-15T02:30:04;13.17;;;10.23;;
4980;SDS011;2507;50.392;7.482;2022-11-15T02:33:00;11.17;;;10.07;;
4980;SDS011;2507;50.392;7.482;2022-11-15T02:35:37;11.50;;;10.37;;
4980;SDS011;2507;50.392;7.482;2022-11-15T02:41:20;10.73;;;9.70;;
4980;SDS011;2507;50.392;7.482;2022-11-15T02:44:02;10.87;;;9.87;;
4980;SDS011;2507;50.392;7.482;2022-11-15T02:49:32;11.07;;;9.90;;
4980;SDS011;2507;50.392;7.482;2022-11-15T02:51:59;10.83;;;9.73;;
4980;SDS011;2507;50.392;7.482;2022-11-15T02:54:26;11.10;;;10.00;;
4980;SDS011;2507;50.392;7.482;2022-11-15T02:56:56;10.70;;;9.60;;
4980;SDS011;2507;50.392;7.482;2022-11-15T02:59:33;11.93;;;10.10;;
4980;SDS011;2507;50.392;7.482;2022-11-15T03:08:02;12.63;;;10.47;;
4980;SDS011;2507;50.392;7.482;2022-11-15T03:13:18;11.10;;;9.90;;
4980;SDS011;2507;50.392;7.482;2022-11-15T03:16:16;10.60;;;9.60;;
4980;SDS011;2507;50.392;7.482;2022-11-15T03:18:46;8.93;;;8.07;;
4980;SDS011;2507;50.392;7.482;2022-11-15T03:21:14;12.33;;;8.50;;
4980;SDS011;2507;50.392;7.482;2022-11-15T03:23:43;8.63;;;7.83;;
4980;SDS011;2507;50.392;7.482;2022-11-15T03:26:11;9.17;;;7.90;;
4980;SDS011;2507;50.392;7.482;2022-11-15T03:31:23;9.37;;;8.23;;
4980;SDS011;2507;50.392;7.482;2022-11-15T03:34:15;8.40;;;7.70;;
4980;SDS011;2507;50.392;7.482;2022-11-15T03:36:48;7.77;;;7.07;;
4980;SDS011;2507;50.392;7.482;2022-11-15T03:39:15;7.27;;;6.67;;
4980;SDS011;2507;50.392;7.482;2022-11-15T03:41:53;6.70;;;6.20;;
4980;SDS011;2507;50.392;7.482;2022-11-15T03:44:30;6.50;;;5.93;;
4980;SDS011;2507;50.392;7.482;2022-11-15T03:47:09;6.53;;;5.93;;
4980;SDS011;2507;50.392;7.482;2022-11-15T03:49:39;7.50;;;6.80;;
4980;SDS011;2507;50.392;7.482;2022-11-15T03:52:09;6.37;;;5.80;;
4980;SDS011;2507;50.392;7.482;2022-11-15T03:54:36;6.20;;;5.67;;
4980;SDS011;2507;50.392;7.482;2022-11-15T03:57:01;6.47;;;5.97;;
4980;SDS011;2507;50.392;7.482;2022-11-15T03:59:26;7.17;;;6.00;;
4980;SDS011;2507;50.392;7.482;2022-11-15T04:01:52;9.53;;;5.33;;
4980;SDS011;2507;50.392;7.482;2022-11-15T04:04:17;6.93;;;6.33;;
4980;SDS011;2507;50.392;7.482;2022-11-15T04:06:42;6.37;;;5.87;;
4980;SDS011;2507;50.392;7.482;2022-11-15T04:09:08;6.30;;;5.80;;
4980;SDS011;2507;50.392;7.482;2022-11-15T04:11:33;6.07;;;5.43;;
4980;SDS011;2507;50.392;7.482;2022-11-15T04:13:58;4.57;;;4.33;;
4980;SDS011;2507;50.392;7.482;2022-11-15T04:16:23;6.23;;;5.27;;
4980;SDS011;2507;50.392;7.482;2022-11-15T04:18:49;13.40;;;6.03;;
4980;SDS011;2507;50.392;7.482;2022-11-15T04:21:34;5.40;;;5.00;;
4980;SDS011;2507;50.392;7.482;2022-11-15T04:24:18;6.10;;;5.70;;
4980;SDS011;2507;50.392;7.482;2022-11-15T04:26:43;6.47;;;5.97;;
4980;SDS011;2507;50.392;7.482;2022-11-15T04:29:09;7.93;;;6.37;;
4980;SDS011;2507;50.392;7.482;2022-11-15T04:31:52;6.37;;;5.97;;
4980;SDS011;2507;50.392;7.482;2022-11-15T04:34:18;6.87;;;6.37;;
4980;SDS011;2507;50.392;7.482;2022-11-15T04:36:43;6.70;;;5.70;;
4980;SDS011;2507;50.392;7.482;2022-11-15T04:39:27;6.50;;;6.00;;
4980;SDS011;2507;50.392;7.482;2022-11-15T04:41:52;6.80;;;6.30;;
4980;SDS011;2507;50.392;7.482;2022-11-15T04:44:17;5.90;;;5.50;;
4980;SDS011;2507;50.392;7.482;2022-11-15T04:46:43;6.40;;;5.77;;
4980;SDS011;2507;50.392;7.482;2022-11-15T04:49:08;5.37;;;5.07;;
4980;SDS011;2507;50.392;7.482;2022-11-15T04:51:33;7.17;;;5.27;;
4980;SDS011;2507;50.392;7.482;2022-11-15T04:53:59;5.50;;;5.10;;
4980;SDS011;2507;50.392;7.482;2022-11-15T04:56:24;5.40;;;5.10;;
4980;SDS011;2507;50.392;7.482;2022-11-15T04:58:49;6.47;;;5.10;;
4980;SDS011;2507;50.392;7.482;2022-11-15T05:01:15;6.00;;;5.40;;
4980;SDS011;2507;50.392;7.482;2022-11-15T05:03:40;4.87;;;4.57;;
4980;SDS011;2507;50.392;7.482;2022-11-15T05:06:25;4.73;;;4.43;;
4980;SDS011;2507;50.392;7.482;2022-11-15T05:08:50;5.60;;;4.80;;
4980;SDS011;2507;50.392;7.482;2022-11-15T05:11:15;5.77;;;5.27;;
4980;SDS011;2507;50.392;7.482;2022-11-15T05:13:41;5.40;;;5.00;;
4980;SDS011;2507;50.392;7.482;2022-11-15T05:16:06;5.10;;;4.80;;
4980;SDS011;2507;50.392;7.482;2022-11-15T05:18:31;5.00;;;4.70;;
4980;SDS011;2507;50.392;7.482;2022-11-15T05:21:03;5.97;;;5.57;;
4980;SDS011;2507;50.392;7.482;2022-11-15T05:23:32;5.80;;;5.30;;
4980;SDS011;2507;50.392;7.482;2022-11-15T05:26:01;5.80;;;5.40;;
4980;SDS011;2507;50.392;7.482;2022-11-15T05:28:27;4.73;;;4.43;;
4980;SDS011;2507;50.392;7.482;2022-11-15T05:30:53;4.93;;;4.53;;
4980;SDS011;2507;50.392;7.482;2022-11-15T05:33:18;6.63;;;4.97;;
4980;SDS011;2507;50.392;7.482;2022-11-15T05:35:46;4.63;;;4.33;;
4980;SDS011;2507;50.392;7.482;2022-11-15T05:38:19;4.40;;;4.20;;
4980;SDS011;2507;50.392;7.482;2022-11-15T05:40:45;5.10;;;4.70;;
4980;SDS011;2507;50.392;7.482;2022-11-15T05:43:10;4.80;;;4.50;;
4980;SDS011;2507;50.392;7.482;2022-11-15T05:45:36;4.97;;;4.67;;
4980;SDS011;2507;50.392;7.482;2022-11-15T05:48:03;4.97;;;4.60;;
4980;SDS011;2507;50.392;7.482;2022-11-15T05:50:31;4.63;;;4.33;;
4980;SDS011;2507;50.392;7.482;2022-11-15T05:52:57;4.90;;;4.60;;
4980;SDS011;2507;50.392;7.482;2022-11-15T05:55:23;4.70;;;4.40;;
4980;SDS011;2507;50.392;7.482;2022-11-15T05:57:48;4.70;;;4.30;;
4980;SDS011;2507;50.392;7.482;2022-11-15T06:00:14;4.70;;;4.30;;
4980;SDS011;2507;50.392;7.482;2022-11-15T06:02:39;5.37;;;4.90;;
4980;SDS011;2507;50.392;7.482;2022-11-15T06:05:05;5.50;;;5.10;;
4980;SDS011;2507;50.392;7.482;2022-11-15T06:07:30;4.90;;;4.60;;
4980;SDS011;2507;50.392;7.482;2022-11-15T06:09:56;7.67;;;6.97;;
4980;SDS011;2507;50.392;7.482;2022-11-15T06:12:21;8.10;;;7.40;;
4980;SDS011;2507;50.392;7.482;2022-11-15T06:14:46;14.00;;;10.40;;
4980;SDS011;2507;50.392;7.482;2022-11-15T06:17:12;12.07;;;10.77;;
4980;SDS011;2507;50.392;7.482;2022-11-15T06:19:37;12.73;;;11.30;;
4980;SDS011;2507;50.392;7.482;2022-11-15T06:22:02;16.27;;;12.53;;
4980;SDS011;2507;50.392;7.482;2022-11-15T06:24:27;7.53;;;6.83;;
4980;SDS011;2507;50.392;7.482;2022-11-15T06:26:53;5.80;;;5.30;;
4980;SDS011;2507;50.392;7.482;2022-11-15T06:29:18;6.40;;;5.90;;
4980;SDS011;2507;50.392;7.482;2022-11-15T06:31:44;5.50;;;5.00;;
4980;SDS011;2507;50.392;7.482;2022-11-15T06:34:09;5.80;;;5.40;;
4980;SDS011;2507;50.392;7.482;2022-11-15T06:36:34;6.13;;;5.70;;
4980;SDS011;2507;50.392;7.482;2022-11-15T06:39:01;5.77;;;5.17;;
4980;SDS011;2507;50.392;7.482;2022-11-15T06:41:27;5.00;;;4.70;;
4980;SDS011;2507;50.392;7.482;2022-11-15T06:43:52;6.70;;;6.10;;
4980;SDS011;2507;50.392;7.482;2022-11-15T06:46:17;8.63;;;7.93;;
4980;SDS011;2507;50.392;7.482;2022-11-15T06:48:43;10.17;;;9.27;;
4980;SDS011;2507;50.392;7.482;2022-11-15T06:51:08;11.00;;;10.00;;
4980;SDS011;2507;50.392;7.482;2022-11-15T06:53:33;9.80;;;9.00;;
4980;SDS011;2507;50.392;7.482;2022-11-15T06:55:59;6.33;;;5.90;;
4980;SDS011;2507;50.392;7.482;2022-11-15T06:58:26;6.03;;;5.43;;
4980;SDS011;2507;50.392;7.482;2022-11-15T07:00:51;4.70;;;4.43;;
4980;SDS011;2507;50.392;7.482;2022-11-15T07:03:16;4.70;;;4.40;;
4980;SDS011;2507;50.392;7.482;2022-11-15T07:05:42;5.30;;;4.90;;
4980;SDS011;2507;50.392;7.482;2022-11-15T07:08:07;5.17;;;4.50;;
4980;SDS011;2507;50.392;7.482;2022-11-15T07:10:32;5.37;;;4.90;;
4980;SDS011;2507;50.392;7.482;2022-11-15T07:12:57;4.90;;;4.60;;
4980;SDS011;2507;50.392;7.482;2022-11-15T07:15:24;4.63;;;4.43;;
4980;SDS011;2507;50.392;7.482;2022-11-15T07:17:50;4.20;;;3.90;;
4980;SDS011;2507;50.392;7.482;2022-11-15T07:20:16;4.93;;;3.63;;
4980;SDS011;2507;50.392;7.482;2022-11-15T07:22:42;4.90;;;4.60;;
4980;SDS011;2507;50.392;7.482;2022-11-15T07:25:10;5.40;;;5.00;;
4980;SDS011;2507;50.392;7.482;2022-11-15T07:27:35;7.20;;;6.60;;
4980;SDS011;2507;50.392;7.482;2022-11-15T07:30:01;5.03;;;4.73;;
4980;SDS011;2507;50.392;7.482;2022-11-15T07:32:26;5.10;;;4.70;;
4980;SDS011;2507;50.392;7.482;2022-11-15T07:34:51;5.07;;;4.70;;
4980;SDS011;2507;50.392;7.482;2022-11-15T07:37:17;6.90;;;6.37;;
4980;SDS011;2507;50.392;7.482;2022-11-15T07:39:42;5.90;;;5.40;;
4980;SDS011;2507;50.392;7.482;2022-11-15T07:42:08;5.37;;;5.07;;
4980;SDS011;2507;50.392;7.482;2022-11-15T07:44:53;4.93;;;4.50;;
4980;SDS011;2507;50.392;7.482;2022-11-15T07:47:18;6.20;;;5.73;;
4980;SDS011;2507;50.392;7.482;2022-11-15T07:49:44;5.87;;;5.47;;
4980;SDS011;2507;50.392;7.482;2022-11-15T07:52:11;6.13;;;5.70;;
4980;SDS011;2507;50.392;7.482;2022-11-15T07:54:36;9.23;;;6.33;;
4980;SDS011;2507;50.392;7.482;2022-11-15T07:57:01;6.00;;;5.67;;
4980;SDS011;2507;50.392;7.482;2022-11-15T07:59:27;9.63;;;8.80;;
4980;SDS011;2507;50.392;7.482;2022-11-15T08:01:52;8.53;;;7.83;;
4980;SDS011;2507;50.392;7.482;2022-11-15T08:04:17;7.90;;;7.30;;
4980;SDS011;2507;50.392;7.482;2022-11-15T08:06:42;7.63;;;7.00;;
4980;SDS011;2507;50.392;7.482;2022-11-15T08:09:08;6.10;;;5.33;;
4980;SDS011;2507;50.392;7.482;2022-11-15T08:11:33;6.73;;;6.17;;
4980;SDS011;2507;50.392;7.482;2022-11-15T08:13:58;5.93;;;5.50;;
4980;SDS011;2507;50.392;7.482;2022-11-15T08:16:24;6.13;;;5.63;;
4980;SDS011;2507;50.392;7.482;2022-11-15T08:18:49;8.73;;;5.80;;
4980;SDS011;2507;50.392;7.482;2022-11-15T08:21:14;6.10;;;5.57;;
4980;SDS011;2507;50.392;7.482;2022-11-15T08:23:43;5.10;;;4.70;;
4980;SDS011;2507;50.392;7.482;2022-11-15T08:26:08;5.73;;;5.07;;
4980;SDS011;2507;50.392;7.482;2022-11-15T08:28:34;5.37;;;4.93;;
4980;SDS011;2507;50.392;7.482;2022-11-15T08:30:59;5.90;;;4.20;;
4980;SDS011;2507;50.392;7.482;2022-11-15T08:33:24;5.27;;;4.90;;
4980;SDS011;2507;50.392;7.482;2022-11-15T08:35:50;5.20;;;4.73;;
4980;SDS011;2507;50.392;7.482;2022-11-15T08:38:15;5.10;;;4.70;;
4980;SDS011;2507;50.392;7.482;2022-11-15T08:40:40;4.20;;;4.00;;
4980;SDS011;2507;50.392;7.482;2022-11-15T08:43:06;4.10;;;3.90;;
4980;SDS011;2507;50.392;7.482;2022-11-15T08:45:31;10.90;;;9.47;;
4980;SDS011;2507;50.392;7.482;2022-11-15T08:48:03;7.40;;;6.80;;
4980;SDS011;2507;50.392;7.482;2022-11-15T08:50:28;6.60;;;6.10;;
4980;SDS011;2507;50.392;7.482;2022-11-15T08:52:54;5.80;;;5.20;;
4980;SDS011;2507;50.392;7.482;2022-11-15T08:55:19;6.23;;;5.70;;
4980;SDS011;2507;50.392;7.482;2022-11-15T08:57:44;4.90;;;4.50;;
4980;SDS011;2507;50.392;7.482;2022-11-15T09:00:10;5.10;;;4.80;;
4980;SDS011;2507;50.392;7.482;2022-11-15T09:02:37;4.67;;;4.37;;
4980;SDS011;2507;50.392;7.482;2022-11-15T09:05:04;4.40;;;4.17;;
4980;SDS011;2507;50.392;7.482;2022-11-15T09:07:30;4.33;;;3.93;;
4980;SDS011;2507;50.392;7.482;2022-11-15T09:09:56;4.43;;;4.13;;
4980;SDS011;2507;50.392;7.482;2022-11-15T09:12:22;5.80;;;4.63;;
4980;SDS011;2507;50.392;7.482;2022-11-15T09:14:47;3.70;;;3.50;;
4980;SDS011;2507;50.392;7.482;2022-11-15T09:17:12;4.03;;;3.73;;
4980;SDS011;2507;50.392;7.482;2022-11-15T09:19:37;3.73;;;3.53;;
4980;SDS011;2507;50.392;7.482;2022-11-15T09:22:05;3.43;;;3.23;;
4980;SDS011;2507;50.392;7.482;2022-11-15T09:24:31;3.43;;;3.33;;
4980;SDS011;2507;50.392;7.482;2022-11-15T09:26:56;3.83;;;3.63;;
4980;SDS011;2507;50.392;7.482;2022-11-15T09:29:21;3.90;;;3.70;;
4980;SDS011;2507;50.392;7.482;2022-11-15T09:31:46;2.97;;;2.87;;
4980;SDS011;2507;50.392;7.482;2022-11-15T09:34:12;5.63;;;3.10;;
4980;SDS011;2507;50.392;7.482;2022-11-15T09:36:37;3.23;;;3.00;;
4980;SDS011;2507;50.392;7.482;2022-11-15T09:39:02;3.27;;;3.07;;
4980;SDS011;2507;50.392;7.482;2022-11-15T09:41:48;2.60;;;2.50;;
4980;SDS011;2507;50.392;7.482;2022-11-15T09:44:35;3.60;;;3.30;;
4980;SDS011;2507;50.392;7.482;2022-11-15T09:47:36;9.03;;;8.13;;
4980;SDS011;2507;50.392;7.482;2022-11-15T09:50:08;5.00;;;4.50;;
4980;SDS011;2507;50.392;7.482;2022-11-15T09:52:36;6.37;;;4.90;;
4980;SDS011;2507;50.392;7.482;2022-11-15T09:55:04;4.47;;;4.07;;
4980;SDS011;2507;50.392;7.482;2022-11-15T10:02:57;6.53;;;4.70;;
4980;SDS011;2507;50.392;7.482;2022-11-15T10:05:47;6.10;;;5.60;;
4980;SDS011;2507;50.392;7.482;2022-11-15T10:08:22;3.30;;;3.20;;
4980;SDS011;2507;50.392;7.482;2022-11-15T10:10:57;3.60;;;3.30;;
4980;SDS011;2507;50.392;7.482;2022-11-15T10:13:31;3.20;;;3.00;;
4980;SDS011;2507;50.392;7.482;2022-11-15T10:16:04;2.60;;;2.50;;
4980;SDS011;2507;50.392;7.482;2022-11-15T10:21:32;2.70;;;2.50;;
4980;SDS011;2507;50.392;7.482;2022-11-15T10:24:12;2.97;;;2.80;;
4980;SDS011;2507;50.392;7.482;2022-11-15T10:26:45;3.20;;;2.90;;
4980;SDS011;2507;50.392;7.482;2022-11-15T10:29:17;6.60;;;5.70;;
4980;SDS011;2507;50.392;7.482;2022-11-15T10:31:43;6.50;;;5.90;;
4980;SDS011;2507;50.392;7.482;2022-11-15T10:34:16;5.13;;;4.53;;
4980;SDS011;2507;50.392;7.482;2022-11-15T10:36:47;5.00;;;4.50;;
4980;SDS011;2507;50.392;7.482;2022-11-15T10:39:23;3.53;;;3.23;;
4980;SDS011;2507;50.392;7.482;2022-11-15T10:41:49;3.07;;;2.83;;
4980;SDS011;2507;50.392;7.482;2022-11-15T10:44:19;2.87;;;2.70;;
4980;SDS011;2507;50.392;7.482;2022-11-15T10:49:22;2.60;;;2.50;;
4980;SDS011;2507;50.392;7.482;2022-11-15T10:54:24;3.60;;;3.30;;
4980;SDS011;2507;50.392;7.482;2022-11-15T10:56:54;3.60;;;3.30;;
4980;SDS011;2507;50.392;7.482;2022-11-15T10:59:31;3.20;;;3.00;;
4980;SDS011;2507;50.392;7.482;2022-11-15T11:01:59;3.80;;;3.43;;
4980;SDS011;2507;50.392;7.482;2022-11-15T11:04:25;4.80;;;2.90;;
4980;SDS011;2507;50.392;7.482;2022-11-15T11:06:51;2.83;;;2.63;;
4980;SDS011;2507;50.392;7.482;2022-11-15T11:09:31;2.47;;;2.37;;
4980;SDS011;2507;50.392;7.482;2022-11-15T11:11:58;2.57;;;2.47;;
4980;SDS011;2507;50.392;7.482;2022-11-15T11:14:25;3.70;;;2.50;;
4980;SDS011;2507;50.392;7.482;2022-11-15T11:17:02;5.40;;;2.27;;
4980;SDS011;2507;50.392;7.482;2022-11-15T11:19:44;2.77;;;2.23;;
4980;SDS011;2507;50.392;7.482;2022-11-15T11:30:18;3.23;;;1.97;;
4980;SDS011;2507;50.392;7.482;2022-11-15T11:33:00;2.87;;;2.67;;
4980;SDS011;2507;50.392;7.482;2022-11-15T11:35:50;2.53;;;2.33;;
4980;SDS011;2507;50.392;7.482;2022-11-15T11:41:26;3.80;;;3.50;;
4980;SDS011;2507;50.392;7.482;2022-11-15T11:46:55;2.30;;;2.10;;
4980;SDS011;2507;50.392;7.482;2022-11-15T11:51:56;3.47;;;2.23;;
4980;SDS011;2507;50.392;7.482;2022-11-15T11:54:44;2.80;;;2.60;;
4980;SDS011;2507;50.392;7.482;2022-11-15T11:57:25;1.97;;;1.87;;
4980;SDS011;2507;50.392;7.482;2022-11-15T12:00:12;2.60;;;2.20;;
4980;SDS011;2507;50.392;7.482;2022-11-15T12:02:40;2.00;;;1.90;;
4980;SDS011;2507;50.392;7.482;2022-11-15T12:05:11;2.13;;;2.03;;
4980;SDS011;2507;50.392;7.482;2022-11-15T12:07:43;2.57;;;2.30;;
4980;SDS011;2507;50.392;7.482;2022-11-15T12:10:14;4.50;;;2.00;;
4980;SDS011;2507;50.392;7.482;2022-11-15T12:15:59;3.00;;;1.90;;
4980;SDS011;2507;50.392;7.482;2022-11-15T12:18:34;1.80;;;1.70;;
4980;SDS011;2507;50.392;7.482;2022-11-15T12:21:01;2.10;;;2.00;;
4980;SDS011;2507;50.392;7.482;2022-11-15T12:23:35;4.03;;;2.00;;
4980;SDS011;2507;50.392;7.482;2022-11-15T12:26:11;2.30;;;2.10;;
4980;SDS011;2507;50.392;7.482;2022-11-15T12:28:54;3.93;;;3.40;;
4980;SDS011;2507;50.392;7.482;2022-11-15T12:34:00;14.93;;;10.50;;
4980;SDS011;2507;50.392;7.482;2022-11-15T12:36:40;3.80;;;2.77;;
4980;SDS011;2507;50.392;7.482;2022-11-15T12:39:08;3.80;;;3.50;;
4980;SDS011;2507;50.392;7.482;2022-11-15T12:41:36;3.13;;;2.03;;
4980;SDS011;2507;50.392;7.482;2022-11-15T12:44:03;2.07;;;1.97;;
4980;SDS011;2507;50.392;7.482;2022-11-15T12:49:01;2.50;;;2.40;;
4980;SDS011;2507;50.392;7.482;2022-11-15T13:02:30;1.83;;;1.73;;
4980;SDS011;2507;50.392;7.482;2022-11-15T13:17:37;3.67;;;3.37;;
4980;SDS011;2507;50.392;7.482;2022-11-15T13:22:44;3.00;;;2.80;;
4980;SDS011;2507;50.392;7.482;2022-11-15T13:27:44;3.30;;;3.10;;
4980;SDS011;2507;50.392;7.482;2022-11-15T13:30:13;3.80;;;3.50;;
4980;SDS011;2507;50.392;7.482;2022-11-15T13:32:44;3.50;;;2.90;;
4980;SDS011;2507;50.392;7.482;2022-11-15T13:35:17;3.90;;;3.20;;
4980;SDS011;2507;50.392;7.482;2022-11-15T13:37:47;4.10;;;2.70;;
4980;SDS011;2507;50.392;7.482;2022-11-15T13:40:20;6.13;;;3.60;;
4980;SDS011;2507;50.392;7.482;2022-11-15T13:42:59;3.10;;;2.90;;
4980;SDS011;2507;50.392;7.482;2022-11-15T13:45:38;6.77;;;4.23;;
4980;SDS011;2507;50.392;7.482;2022-11-15T13:48:04;2.20;;;2.10;;
4980;SDS011;2507;50.392;7.482;2022-11-15T13:50:32;2.53;;;2.40;;
4980;SDS011;2507;50.392;7.482;2022-11-15T13:53:00;3.20;;;3.00;;
4980;SDS011;2507;50.392;7.482;2022-11-15T13:55:28;2.70;;;2.60;;
4980;SDS011;2507;50.392;7.482;2022-11-15T13:57:58;6.30;;;2.90;;
4980;SDS011;2507;50.392;7.482;2022-11-15T14:06:02;3.10;;;2.90;;
4980;SDS011;2507;50.392;7.482;2022-11-15T14:08:37;3.73;;;2.80;;
4980;SDS011;2507;50.392;7.482;2022-11-15T14:11:21;3.47;;;2.83;;
4980;SDS011;2507;50.392;7.482;2022-11-15T14:14:10;3.70;;;3.40;;
4980;SDS011;2507;50.392;7.482;2022-11-15T14:16:50;3.33;;;3.07;;
4980;SDS011;2507;50.392;7.482;2022-11-15T14:27:41;3.70;;;3.20;;
4980;SDS011;2507;50.392;7.482;2022-11-15T14:30:27;2.80;;;2.67;;
4980;SDS011;2507;50.392;7.482;2022-11-15T14:32:52;3.03;;;2.83;;
4980;SDS011;2507;50.392;7.482;2022-11-15T14:35:19;2.70;;;2.50;;
4980;SDS011;2507;50.392;7.482;2022-11-15T14:37:46;3.07;;;2.93;;
4980;SDS011;2507;50.392;7.482;2022-11-15T14:40:16;2.67;;;2.47;;
4980;SDS011;2507;50.392;7.482;2022-11-15T14:42:43;2.67;;;2.53;;
4980;SDS011;2507;50.392;7.482;2022-11-15T14:45:17;3.03;;;2.83;;
4980;SDS011;2507;50.392;7.482;2022-11-15T14:47:45;3.00;;;2.80;;
4980;SDS011;2507;50.392;7.482;2022-11-15T14:50:14;3.50;;;3.20;;
4980;SDS011;2507;50.392;7.482;2022-11-15T14:52:42;3.40;;;3.17;;
4980;SDS011;2507;50.392;7.482;2022-11-15T14:57:41;4.20;;;3.00;;
4980;SDS011;2507;50.392;7.482;2022-11-15T15:00:07;3.60;;;3.40;;
4980;SDS011;2507;50.392;7.482;2022-11-15T15:02:33;4.00;;;3.60;;
4980;SDS011;2507;50.392;7.482;2022-11-15T15:04:59;3.17;;;2.87;;
4980;SDS011;2507;50.392;7.482;2022-11-15T15:07:27;3.60;;;3.40;;
4980;SDS011;2507;50.392;7.482;2022-11-15T15:09:52;5.93;;;4.70;;
4980;SDS011;2507;50.392;7.482;2022-11-15T15:12:22;7.80;;;7.00;;
4980;SDS011;2507;50.392;7.482;2022-11-15T15:14:48;3.60;;;3.30;;
4980;SDS011;2507;50.392;7.482;2022-11-15T15:17:15;7.30;;;5.87;;
4980;SDS011;2507;50.392;7.482;2022-11-15T15:19:41;4.23;;;3.83;;
4980;SDS011;2507;50.392;7.482;2022-11-15T15:22:09;6.77;;;6.07;;
4980;SDS011;2507;50.392;7.482;2022-11-15T15:24:38;3.40;;;3.10;;
4980;SDS011;2507;50.392;7.482;2022-11-15T15:27:04;4.03;;;3.20;;
4980;SDS011;2507;50.392;7.482;2022-11-15T15:29:29;5.57;;;5.00;;
4980;SDS011;2507;50.392;7.482;2022-11-15T15:31:54;5.10;;;3.90;;
4980;SDS011;2507;50.392;7.482;2022-11-15T15:34:19;4.50;;;4.20;;
4980;SDS011;2507;50.392;7.482;2022-11-15T15:36:45;4.40;;;4.00;;
4980;SDS011;2507;50.392;7.482;2022-11-15T15:39:10;4.07;;;3.77;;
4980;SDS011;2507;50.392;7.482;2022-11-15T15:41:36;4.03;;;3.43;;
4980;SDS011;2507;50.392;7.482;2022-11-15T15:44:02;10.37;;;7.80;;
4980;SDS011;2507;50.392;7.482;2022-11-15T15:46:27;5.17;;;4.67;;
4980;SDS011;2507;50.392;7.482;2022-11-15T15:48:52;10.33;;;3.87;;
4980;SDS011;2507;50.392;7.482;2022-11-15T15:51:17;4.70;;;3.70;;
4980;SDS011;2507;50.392;7.482;2022-11-15T15:53:43;5.70;;;5.10;;
4980;SDS011;2507;50.392;7.482;2022-11-15T15:56:08;4.97;;;4.33;;
4980;SDS011;2507;50.392;7.482;2022-11-15T15:58:34;4.57;;;4.17;;
4980;SDS011;2507;50.392;7.482;2022-11-15T16:00:59;4.37;;;4.07;;
4980;SDS011;2507;50.392;7.482;2022-11-15T16:03:25;3.70;;;3.40;;
4980;SDS011;2507;50.392;7.482;2022-11-15T16:05:50;8.20;;;6.50;;
4980;SDS011;2507;50.392;7.482;2022-11-15T16:08:22;5.50;;;4.90;;
4980;SDS011;2507;50.392;7.482;2022-11-15T16:10:49;5.10;;;4.70;;
4980;SDS011;2507;50.392;7.482;2022-11-15T16:13:15;4.67;;;4.27;;
4980;SDS011;2507;50.392;7.482;2022-11-15T16:15:40;4.60;;;4.30;;
4980;SDS011;2507;50.392;7.482;2022-11-15T16:18:15;5.50;;;4.80;;
4980;SDS011;2507;50.392;7.482;2022-11-15T16:20:45;5.10;;;4.70;;
4980;SDS011;2507;50.392;7.482;2022-11-15T16:23:15;4.53;;;4.20;;
4980;SDS011;2507;50.392;7.482;2022-11-15T16:25:45;5.10;;;4.70;;
4980;SDS011;2507;50.392;7.482;2022-11-15T16:28:15;5.87;;;5.37;;
4980;SDS011;2507;50.392;7.482;2022-11-15T16:30:42;6.90;;;6.10;;
4980;SDS011;2507;50.392;7.482;2022-11-15T16:33:08;5.17;;;4.77;;
4980;SDS011;2507;50.392;7.482;2022-11-15T16:35:33;5.27;;;4.77;;
4980;SDS011;2507;50.392;7.482;2022-11-15T16:37:58;8.40;;;5.10;;
4980;SDS011;2507;50.392;7.482;2022-11-15T16:40:31;4.57;;;4.27;;
4980;SDS011;2507;50.392;7.482;2022-11-15T16:42:58;6.40;;;5.00;;
4980;SDS011;2507;50.392;7.482;2022-11-15T16:45:26;7.47;;;6.77;;
4980;SDS011;2507;50.392;7.482;2022-11-15T16:47:53;5.00;;;4.60;;
4980;SDS011;2507;50.392;7.482;2022-11-15T16:50:20;7.80;;;7.10;;
4980;SDS011;2507;50.392;7.482;2022-11-15T16:52:53;6.80;;;6.20;;
4980;SDS011;2507;50.392;7.482;2022-11-15T16:55:20;6.70;;;5.07;;
4980;SDS011;2507;50.392;7.482;2022-11-15T16:57:47;5.10;;;4.70;;
4980;SDS011;2507;50.392;7.482;2022-11-15T17:00:13;6.63;;;5.97;;
4980;SDS011;2507;50.392;7.482;2022-11-15T17:02:40;6.10;;;5.50;;
4980;SDS011;2507;50.392;7.482;2022-11-15T17:05:10;5.70;;;5.17;;
4980;SDS011;2507;50.392;7.482;2022-11-15T17:07:36;7.10;;;5.90;;
4980;SDS011;2507;50.392;7.482;2022-11-15T17:10:02;7.50;;;5.87;;